Latest Coastal Weather Observations for Maatsuyker Island

IDT60701

Issued at 1:52 am EST Thursday 28 May 2020 (issued every 10 minutes, with the page automatically refreshed every 10 minutes)

About coastal observations | Map of coastal stations | Coastal observations for TAS | Marine services | Other Formats
Station Details ID: 094041 Name: MAATSUYKER ISLAND LIGHTHOUSE Lat: -43.66 Lon: 146.27 Height: 146.5 m
Data from the previous 72 hours. | See also: Recent months at Maatsuyker Island
Date/Time
EST
Wind Sea
Height
m
Swell Vis
km
Cloud Weather Temp
°C
Press
hPa
Rain since
9am
mm
Dir  Spd
kts
Gust
kts
Height
m
Period
s
Dir
28/01:30am NNW 18 23 - - - - - - - 12.6 1012.9 0.0
28/01:00am NNW 15 25 - - - - - - - 12.6 1013.0 0.0
28/12:59am NNW 15 25 - - - - - - - 12.5 1013.0 0.0
28/12:30am NNW 13 18 - - - - - - - 12.1 1013.3 0.0
28/12:00am N 12 16 - - - - - - - 12.4 1013.6 0.0
 
Date/Time
EST
Wind Sea
Height
m
Swell Vis
km
Cloud Weather Temp
°C
Press
hPa
Rain since
9am
mm
Dir  Spd
kts
Gust
kts
Height
m
Period
s
Dir
27/11:30pm NNW 13 18 - - - - - - - 12.8 1013.5 0.0
27/11:00pm NNW 12 16 - - - - - - - 13.0 1013.7 0.0
27/10:30pm NNW 11 14 - - - - - - - 13.0 1013.9 0.0
27/10:00pm NNW 14 18 - - - - - - - 13.2 1014.0 0.0
27/09:30pm NNW 11 15 - - - - - - - 13.2 1014.1 0.0
27/09:00pm NNW 9 11 - - - - - - - 13.4 1014.4 0.0
27/08:30pm N 8 10 - - - - - - - 13.6 1014.4 0.0
27/08:00pm N 8 10 - - - - - - - 13.5 1014.4 0.0
27/07:30pm N 8 11 - - - - - - - 13.4 1014.4 0.0
27/07:00pm N 9 11 - - - - - - - 13.1 1014.5 0.0
27/06:30pm N 8 11 - - - - - - - 13.3 1014.5 0.0
27/06:00pm N 8 11 - - - - - - - 13.2 1014.8 0.0
27/05:30pm N 9 11 - - - - - - - 13.4 1014.7 0.0
27/05:00pm N 8 11 - - - - - - - 13.7 1014.6 0.0
27/04:30pm N 9 13 - - - - - - - 14.0 1014.7 0.0
27/03:30pm N 9 14 - - - - - - - 14.1 1014.9 0.0
27/03:00pm NNW 11 14 - - - - - - - 14.0 1015.3 0.0
27/02:30pm NNW 13 19 - - - - - - - 14.2 1015.1 0.0
27/02:00pm NNW 12 17 - - - - - - - 14.5 1015.3 0.0
27/01:30pm NNW 12 16 - - - - - - - 15.3 1015.7 0.0
27/01:00pm NNW 15 21 - - - - - - - 14.3 1015.9 0.0
27/12:30pm NNW 14 18 - - - - - - - 15.1 1016.2 0.0
27/12:00pm NNW 13 17 - - - - - - - 14.4 1016.7 0.0
27/11:30am NNW 13 18 - - - - - - - 14.0 1016.9 0.0
27/11:00am N 12 17 - - - - - - - 13.7 1017.6 0.0
27/10:30am N 10 15 - - - - - - - 13.3 1017.9 0.0
27/10:00am N 11 15 - - - - - - - 12.9 1018.0 0.0
27/09:30am N 11 13 - - - - - - - 11.8 1018.1 0.0
27/09:00am N 12 16 <0.1 1.5 10 SW 30 Partly cloudy Fine 11.3 1018.4 0.2
27/08:30am N 11 16 - - - - - - - 11.2 1018.3 0.2
27/08:00am N 8 11 - - - - - - - 10.1 1018.6 0.2
27/07:30am NNE 6 8 - - - - - - - 9.8 1018.7 0.2
27/07:00am N 7 10 - - - - - - - 9.2 1018.7 0.2
27/06:30am NNE 6 9 - - - - - - - 9.2 1018.7 0.2
27/06:00am N 6 7 <0.5 2.0 10 SW 25 Mostly clear Fine 8.4 1019.0 0.2
27/05:30am N 4 6 - - - - - - - 7.7 1018.9 0.2
27/05:00am CALM 0 3 - - - - - - - 8.3 1018.9 0.2
27/04:30am WNW 2 3 - - - - - - - 8.8 1019.1 0.2
27/04:00am N 4 6 - - - - - - - 8.4 1019.1 0.0
27/03:30am N 5 7 - - - - - - - 8.0 1019.3 0.0
27/03:00am E 3 6 - - - - - - - 8.3 1019.8 0.0
27/02:30am NNE 4 5 - - - - - - - 7.5 1019.9 0.0
27/02:00am N 4 7 - - - - - - - 8.0 1020.1 0.0
27/01:30am N 8 10 - - - - - - - 8.3 1020.1 0.0
27/01:00am N 10 11 - - - - - - - 8.1 1020.1 0.0
27/12:30am N 7 9 - - - - - - - 7.2 1020.8 0.0
27/12:00am N 7 8 - - - - - - - 7.3 1021.3 0.0
 
Date/Time
EST
Wind Sea
Height
m
Swell Vis
km
Cloud Weather Temp
°C
Press
hPa
Rain since
9am
mm
Dir  Spd
kts
Gust
kts
Height
m
Period
s
Dir
26/11:30pm NNW 8 10 - - - - - - - 8.1 1021.4 0.0
26/11:00pm NW 9 11 - - - - - - - 8.4 1021.6 0.0
26/10:30pm NW 8 10 - - - - - - - 8.2 1021.8 0.0
26/10:00pm NW 10 12 - - - - - - - 8.6 1022.1 0.0
26/09:30pm NW 10 11 - - - - - - - 8.4 1022.2 0.0
26/09:00pm WNW 9 11 - - - - - - - 8.2 1022.5 0.0
26/08:30pm NW 7 9 - - - - - - - 7.8 1022.3 0.0
26/08:00pm NW 7 8 - - - - - - - 8.0 1022.4 0.0
26/07:30pm WNW 4 5 - - - - - - - 7.8 1022.3 0.0
26/07:00pm S 1 5 - - - - - - - 7.5 1022.4 0.0
26/06:30pm CALM 0 3 - - - - - - - 7.7 1022.5 0.0
26/06:00pm N 1 4 - - - - - - - 8.3 1022.8 0.0
26/05:30pm NW 1 4 - - - - - - - 8.1 1022.5 0.0
26/05:00pm NNW 1 4 - - - - - - - 8.3 1022.7 0.0
26/04:30pm N 3 6 - - - - - - - 9.3 1022.9 0.0
26/04:00pm N 2 5 - - - - - - - 9.8 1023.1 0.0
26/03:30pm N 3 5 - - - - - - - 10.0 1023.2 0.0
26/03:00pm N 3 7 - - - - - - - 10.0 1023.6 0.0
26/02:30pm N 3 6 - - - - - - - 10.4 1023.7 0.0
26/02:00pm SE 8 10 - - - - - - - 9.4 1024.2 0.0
26/01:30pm SSE 4 7 - - - - - - - 10.2 1024.6 0.0
26/01:00pm SSE 3 6 - - - - - - - 9.7 1025.0 0.0
26/12:30pm SSE 5 8 - - - - - - - 9.8 1025.4 0.0
26/12:00pm SE 5 7 - - - - - - - 9.5 1025.9 0.0
26/11:30am SE 3 5 - - - - - - - 9.2 1026.1 0.0
26/11:00am SE 2 4 - - - - - - - 8.4 1026.3 0.0
26/10:30am CALM 0 0 - - - - - - - 8.0 1026.5 0.0
26/10:00am CALM 0 0 - - - - - - - 8.7 1026.4 0.0
26/09:30am N 3 4 - - - - - - - 8.1 1026.4 0.0
26/09:00am ENE 3 5 <0.5 1.5 10 SW 30 Mostly clear Fine 7.9 1026.8 0.2
26/08:30am CALM 0 0 - - - - - - - 7.6 1026.7 0.2
26/08:00am SSW 1 3 - - - - - - - 7.2 1026.8 0.2
26/07:30am NNE 7 9 - - - - - - - 6.9 1026.6 0.2
26/07:00am N 8 10 - - - - - - - 7.1 1026.6 0.2
26/06:30am N 10 11 - - - - - - - 7.5 1026.6 0.0
26/06:00am N 11 12 <0.5 2.0 10 SW 30 Clear Fine 7.3 1026.7 0.0
26/05:30am N 9 12 - - - - - - - 7.2 1026.5 0.0
26/05:00am N 11 13 - - - - - - - 7.0 1026.7 0.0
26/04:30am N 11 13 - - - - - - - 6.8 1026.7 0.0
26/04:00am N 9 11 - - - - - - - 6.9 1026.9 0.0
26/03:30am N 10 13 - - - - - - - 7.3 1027.3 0.0
26/03:00am N 10 12 - - - - - - - 7.0 1027.8 0.0
26/02:30am N 9 11 - - - - - - - 7.0 1027.8 0.0
26/02:00am N 8 10 - - - - - - - 6.9 1027.8 0.0
26/01:30am N 8 9 - - - - - - - 7.0 1027.8 0.0
26/01:00am N 7 8 - - - - - - - 6.8 1027.6 0.0
26/12:30am NW 8 10 - - - - - - - 7.5 1027.6 0.0
26/12:00am NNW 7 10 - - - - - - - 7.6 1027.7 0.0
 
Date/Time
EST
Wind Sea
Height
m
Swell Vis
km
Cloud Weather Temp
°C
Press
hPa
Rain since
9am
mm
Dir  Spd
kts
Gust
kts
Height
m
Period
s
Dir
25/11:30pm NNW 7 9 - - - - - - - 7.2 1027.3 0.0
25/11:00pm NNW 7 9 - - - - - - - 7.5 1027.2 0.0
25/10:30pm N 8 10 - - - - - - - 7.5 1027.2 0.0
25/10:00pm N 6 9 - - - - - - - 7.9 1027.3 0.0
25/09:30pm WNW 6 7 - - - - - - - 8.1 1027.5 0.0
25/09:00pm WNW 7 9 - - - - - - - 8.1 1027.9 0.0
25/08:30pm NW 5 7 - - - - - - - 7.9 1027.6 0.0
25/08:00pm CALM 0 3 - - - - - - - 8.1 1027.7 0.0
25/07:30pm SE 5 6 - - - - - - - 8.0 1027.6 0.0
25/07:00pm E 1 4 - - - - - - - 8.0 1027.6 0.0
25/06:30pm NE 3 5 - - - - - - - 8.1 1027.1 0.0
25/06:00pm N 7 8 - - - - - - - 7.6 1026.8 0.0
25/05:30pm N 6 8 - - - - - - - 7.8 1026.5 0.0
25/05:00pm NE 5 7 - - - - - - - 8.5 1026.3 0.0
25/04:30pm N 4 9 - - - - - - - 9.0 1026.1 0.0
25/04:00pm WNW 5 10 - - - - - - - 9.5 1026.1 0.0
25/03:30pm NW 3 5 - - - - - - - 10.3 1026.5 0.0
25/03:00pm N 4 5 - - - - - - - 10.6 1026.9 0.0
25/02:30pm N 4 8 - - - - - - - 10.6 1026.4 0.0
25/02:00pm NNW 3 6 - - - - - - - 10.3 1026.1 0.0
25/01:30pm NNW 4 5 - - - - - - - 10.4 1025.9 0.0
25/01:00pm NNW 5 10 - - - - - - - 9.9 1025.8 0.0
25/12:30pm NW 5 10 - - - - - - - 9.2 1025.2 0.0
25/12:00pm NW 5 12 - - - - - - - 9.5 1026.0 0.0
25/11:30am NW 6 10 - - - - - - - 8.8 1026.5 0.0
25/11:00am NW 6 11 - - - - - - - 8.6 1027.0 0.0
25/10:30am WNW 5 10 - - - - - - - 8.4 1027.3 0.0
25/10:00am N 6 10 - - - - - - - 8.1 1027.9 0.0
25/09:30am WNW 4 8 - - - - - - - 8.1 1027.9 0.0
25/09:00am NW 5 8 <0.1 1.5 10 SW 20 Cloudy Fine 8.0 1028.8 0.0
25/08:30am NNW 4 11 - - - - - - - 7.7 1029.0 0.0
25/08:00am N 3 6 - - - - - - - 7.4 1028.9 0.0
25/07:30am N 3 5 - - - - - - - 7.7 1028.2 0.0
25/07:00am NNW 3 5 - - - - - - - 7.7 1027.7 0.0
25/06:30am N 4 7 - - - - - - - 7.5 1027.2 0.0
25/06:00am N 5 7 <0.5 2.0 10 SW 25 Partly cloudy Fine 7.3 1027.1 0.0
25/05:30am NW 5 7 - - - - - - - 7.5 1026.5 0.0
25/05:00am NW 4 7 - - - - - - - 7.3 1026.3 0.0
25/04:30am NNW 3 7 - - - - - - - 7.3 1026.1 0.0
25/04:00am W 2 5 - - - - - - - 7.2 1026.1 0.0
25/03:30am N 3 7 - - - - - - - 7.2 1026.3 0.0
25/03:00am N 2 7 - - - - - - - 7.3 1026.9 0.0
25/02:30am WNW 4 6 - - - - - - - 7.2 1026.6 0.0
25/02:00am NNW 3 7 - - - - - - - 7.3 1026.7 0.0

Other formats

Comma delimited format used in spreadsheet applications
http://www.bom.gov.au/fwo/IDT60701/IDT60701.94962.axf

JavaScript Object Notation format (JSON) in row-major order
http://www.bom.gov.au/fwo/IDT60701/IDT60701.94962.json

Data quality

Most of these data are generated automatically and are frequently updated. Quality checks on data are not normally performed. It is possible for incorrect values to appear. Refer to information at About Latest Weather Observations and please check the disclaimer before using these data.